Time;durP1;ratioP1;P1;durP2;ratioP2;P2;SDS_P1;SDS_P2;PMS_P1;PMS_P2;Temp;Humidity;BMP_temperature;BMP_pressure;BME280_temperature;BME280_humidity;BME280_pressure;Samples;Min_cycle;Max_cycle;Signal;HPM_P1;HPM_P2
2021/09/25 00:01:08;;;;;;;1.55;0.90;;;;;;;10.16;100.00;99117.22;1806511;79;21718;-81
2021/09/25 00:03:34;;;;;;;5.20;0.90;;;;;;;10.15;100.00;99120.80;1808212;79;20974;-82
2021/09/25 00:06:00;;;;;;;3.35;0.93;;;;;;;10.15;100.00;99119.48;1808115;79;21552;-82
2021/09/25 00:08:26;;;;;;;5.83;1.47;;;;;;;10.13;100.00;99127.91;1807499;79;21468;-81
2021/09/25 00:10:53;;;;;;;5.00;0.90;;;;;;;10.11;100.00;99123.66;1807329;79;21053;-83
2021/09/25 00:13:20;;;;;;;8.70;1.00;;;;;;;10.10;100.00;99132.03;1807623;79;20967;-82
2021/09/25 00:15:47;;;;;;;2.90;0.75;;;;;;;10.07;100.00;99126.90;1807226;79;21597;-86
2021/09/25 00:18:14;;;;;;;5.65;0.85;;;;;;;10.03;100.00;99118.77;1807354;79;21065;-82
2021/09/25 00:20:41;;;;;;;3.52;0.80;;;;;;;10.00;100.00;99120.25;1807446;79;21528;-81
2021/09/25 00:23:09;;;;;;;5.30;1.00;;;;;;;10.01;100.00;99123.28;1807274;79;21638;-81
2021/09/25 00:25:35;;;;;;;1.95;0.98;;;;;;;9.96;100.00;99115.63;1810137;78;21050;-83
2021/09/25 00:28:02;;;;;;;3.85;1.17;;;;;;;9.95;100.00;99124.43;1824385;78;21071;-82
2021/09/25 00:30:28;;;;;;;5.55;1.02;;;;;;;9.95;100.00;99126.22;1823760;78;21066;-83
2021/09/25 00:32:54;;;;;;;3.65;1.10;;;;;;;9.94;100.00;99128.44;1821601;78;21082;-82
2021/09/25 00:35:21;;;;;;;4.50;0.80;;;;;;;9.93;100.00;99128.06;1820713;78;21053;-81
2021/09/25 00:37:47;;;;;;;2.45;0.82;;;;;;;9.94;100.00;99133.70;1820416;78;21018;-81
2021/09/25 00:40:15;;;;;;;6.15;1.00;;;;;;;9.93;100.00;99135.95;1820223;78;20999;-82
2021/09/25 00:42:42;;;;;;;2.55;0.93;;;;;;;9.94;100.00;99137.65;1820405;78;21047;-81
2021/09/25 00:45:11;;;;;;;2.25;0.70;;;;;;;9.94;100.00;99138.96;1820549;78;21089;-82
2021/09/25 00:47:37;;;;;;;1.62;0.70;;;;;;;9.94;100.00;99135.02;1820534;78;21541;-80
2021/09/25 00:50:05;;;;;;;2.60;0.88;;;;;;;9.96;100.00;99143.69;1820754;78;21108;-81
2021/09/25 00:52:31;;;;;;;2.65;0.93;;;;;;;9.93;100.00;99146.48;1820411;78;21735;-80
2021/09/25 00:54:58;;;;;;;3.17;0.95;;;;;;;9.92;100.00;99152.68;1820830;78;20983;-81
2021/09/25 00:57:24;;;;;;;5.03;0.95;;;;;;;9.91;100.00;99154.44;1820381;78;21179;-81
2021/09/25 00:59:51;;;;;;;2.77;1.10;;;;;;;9.90;100.00;99159.80;1820143;78;22231;-80
2021/09/25 01:02:18;;;;;;;3.45;1.10;;;;;;;9.88;100.00;99159.39;1820049;78;21037;-80
2021/09/25 01:04:46;;;;;;;3.55;1.07;;;;;;;9.87;100.00;99159.48;1820655;78;21058;-80
2021/09/25 01:07:15;;;;;;;2.87;0.95;;;;;;;9.85;100.00;99164.81;1820027;78;21754;-83
2021/09/25 01:09:41;;;;;;;4.58;0.80;;;;;;;9.85;100.00;99164.81;1821073;78;21602;-82
2021/09/25 01:12:10;;;;;;;4.95;1.40;;;;;;;9.85;100.00;99170.54;1820632;78;21220;-82
2021/09/25 01:14:37;;;;;;;0.65;0.53;;;;;;;9.86;100.00;99179.65;1820766;78;21098;-80
2021/09/25 01:17:09;;;;;;;2.62;0.80;;;;;;;9.85;100.00;99183.22;1819839;78;21561;-81
2021/09/25 01:19:35;;;;;;;2.90;1.02;;;;;;;9.86;100.00;99178.33;1820740;78;21019;-83
2021/09/25 01:22:03;;;;;;;2.22;0.98;;;;;;;9.85;100.00;99184.53;1819418;78;21118;-83
2021/09/25 01:24:30;;;;;;;4.87;1.00;;;;;;;9.86;100.00;99180.96;1807033;79;21009;-82
2021/09/25 01:26:57;;;;;;;1.95;0.80;;;;;;;9.85;100.00;99179.27;1807053;79;22167;-82
2021/09/25 01:29:25;;;;;;;4.05;1.12;;;;;;;9.85;100.00;99184.53;1806546;79;21053;-82
2021/09/25 01:31:52;;;;;;;2.85;0.90;;;;;;;9.86;100.00;99178.80;1806898;79;21061;-83
2021/09/25 01:34:18;;;;;;;1.12;0.82;;;;;;;9.86;100.00;99174.39;1806995;79;21468;-81
2021/09/25 01:36:45;;;;;;;2.98;0.90;;;;;;;9.87;100.00;99176.11;1806894;79;21084;-80
2021/09/25 01:39:11;;;;;;;4.00;1.10;;;;;;;9.88;100.00;99177.80;1807126;79;21108;-82
2021/09/25 01:41:37;;;;;;;5.83;0.90;;;;;;;9.90;100.00;99182.15;1807200;79;21045;-81
2021/09/25 01:44:04;;;;;;;4.05;1.15;;;;;;;9.89;100.00;99179.95;1807095;79;21112;-80
2021/09/25 01:46:30;;;;;;;5.87;0.90;;;;;;;9.90;100.00;99193.98;1807084;79;21535;-81
2021/09/25 01:48:56;;;;;;;2.90;0.80;;;;;;;9.88;100.00;99197.99;1807384;79;21080;-83
2021/09/25 01:51:23;;;;;;;2.92;0.80;;;;;;;9.91;100.00;99200.93;1806565;79;21054;-83
2021/09/25 01:53:49;;;;;;;5.40;0.80;;;;;;;9.92;100.00;99190.81;1807294;79;21592;-83
2021/09/25 01:56:16;;;;;;;2.83;0.93;;;;;;;9.91;100.00;99200.93;1807521;79;21842;-82
2021/09/25 01:58:42;;;;;;;2.33;0.82;;;;;;;9.92;100.00;99209.23;1807351;79;21525;-83
2021/09/25 02:01:10;;;;;;;3.37;0.90;;;;;;;9.92;100.00;99214.48;1808705;79;21014;-82
2021/09/25 02:03:36;;;;;;;2.60;1.37;;;;;;;9.95;100.00;99223.53;1809551;79;21033;-82
2021/09/25 02:06:06;;;;;;;3.35;1.00;;;;;;;9.95;100.00;99218.27;1810342;79;21041;-82
2021/09/25 02:08:33;;;;;;;2.87;0.98;;;;;;;9.97;100.00;99219.05;1810788;78;21062;-80
2021/09/25 02:10:59;;;;;;;1.77;0.90;;;;;;;9.96;100.00;99229.16;1812634;78;21350;-80
2021/09/25 02:13:26;;;;;;;2.98;0.90;;;;;;;9.97;100.00;99233.05;1808224;79;21065;-81
2021/09/25 02:15:53;;;;;;;4.75;0.90;;;;;;;9.97;100.00;99241.41;1807131;79;21561;-81
2021/09/25 02:18:19;;;;;;;2.62;0.80;;;;;;;9.95;100.00;99244.10;1807010;79;21034;-80
2021/09/25 02:20:46;;;;;;;8.98;0.72;;;;;;;9.95;100.00;99245.89;1807229;79;21115;-83
2021/09/25 02:23:12;;;;;;;4.60;0.90;;;;;;;9.94;100.00;99245.48;1806752;79;22042;-82
2021/09/25 02:25:39;;;;;;;1.20;0.80;;;;;;;9.96;100.00;99252.40;1807401;79;21021;-82
2021/09/25 02:28:05;;;;;;;2.98;0.80;;;;;;;9.94;100.00;99253.37;1807107;79;21076;-84
2021/09/25 02:30:31;;;;;;;2.12;0.72;;;;;;;9.95;100.00;99258.56;1807208;79;21013;-82
2021/09/25 02:32:58;;;;;;;3.70;0.70;;;;;;;9.95;100.00;99265.61;1807293;79;21652;-80
2021/09/25 02:35:24;;;;;;;5.00;1.12;;;;;;;9.96;100.00;99269.50;1807264;79;21530;-83
2021/09/25 02:37:52;;;;;;;1.85;0.78;;;;;;;9.97;100.00;99267.71;1806867;79;21049;-83
2021/09/25 02:40:20;;;;;;;2.10;0.62;;;;;;;9.98;100.00;99272.03;1807285;79;21060;-84
2021/09/25 02:42:48;;;;;;;4.65;1.00;;;;;;;9.94;100.00;99273.09;1807504;79;21010;-83
2021/09/25 02:45:14;;;;;;;3.20;0.90;;;;;;;10.00;100.00;99279.39;1807699;79;21116;-84
2021/09/25 02:47:41;;;;;;;1.65;0.65;;;;;;;10.00;100.00;99268.87;1808952;78;21171;-84
2021/09/25 02:50:10;;;;;;;3.58;0.75;;;;;;;10.02;100.00;99277.54;1812255;78;21565;-82
2021/09/25 02:52:38;;;;;;;2.45;0.82;;;;;;;10.03;100.00;99283.17;1808363;79;21037;-82
2021/09/25 02:55:06;;;;;;;0.88;0.50;;;;;;;10.03;100.00;99294.58;1799492;79;21053;-83
2021/09/25 02:57:32;;;;;;;2.02;0.78;;;;;;;10.04;100.00;99298.05;1790256;80;21013;-84
2021/09/25 02:59:59;;;;;;;2.92;0.78;;;;;;;10.05;100.00;99299.74;1790674;80;21525;-82
2021/09/25 03:02:25;;;;;;;4.47;0.78;;;;;;;10.05;100.00;99308.95;1819671;78;21055;-84
2021/09/25 03:04:52;;;;;;;2.08;0.85;;;;;;;10.05;100.00;99314.20;1782143;80;21041;-82
2021/09/25 03:07:18;;;;;;;2.55;0.80;;;;;;;10.06;100.00;99322.04;1753792;81;21065;-82
2021/09/25 03:09:45;;;;;;;2.10;0.80;;;;;;;10.07;100.00;99324.20;1754278;81;22085;-83
2021/09/25 03:12:12;;;;;;;2.10;0.85;;;;;;;10.07;100.00;99337.35;1781778;80;21126;-85
2021/09/25 03:14:38;;;;;;;2.25;1.05;;;;;;;10.07;100.00;99338.20;1781960;80;21007;-83
2021/09/25 03:17:05;;;;;;;6.12;0.93;;;;;;;10.08;100.00;99343.02;1781715;80;22192;-83
2021/09/25 03:19:31;;;;;;;1.90;0.78;;;;;;;10.11;100.00;99342.86;1754139;81;21101;-85
2021/09/25 03:21:57;;;;;;;2.05;0.80;;;;;;;10.11;100.00;99348.13;1753766;81;21044;-86
2021/09/25 03:24:24;;;;;;;4.92;1.20;;;;;;;10.09;100.00;99349.97;1784327;80;22070;-85
2021/09/25 03:26:50;;;;;;;3.10;0.90;;;;;;;10.09;100.00;99351.29;1784714;80;21306;-84
2021/09/25 03:29:16;;;;;;;2.25;0.80;;;;;;;10.10;100.00;99356.95;1784556;80;21121;-81
2021/09/25 03:31:43;;;;;;;1.98;0.98;;;;;;;10.08;100.00;99361.44;1784385;80;21539;-81
2021/09/25 03:34:09;;;;;;;2.90;0.80;;;;;;;10.06;100.00;99364.59;1784488;80;21101;-83
2021/09/25 03:36:36;;;;;;;3.67;0.90;;;;;;;10.05;100.00;99374.71;1784842;80;21140;-81
2021/09/25 03:39:03;;;;;;;3.60;0.70;;;;;;;10.05;100.00;99372.96;1784720;80;21080;-84
2021/09/25 03:41:30;;;;;;;2.85;0.90;;;;;;;10.05;100.00;99382.61;1784647;80;21607;-82
2021/09/25 03:43:56;;;;;;;2.60;1.05;;;;;;;10.06;100.00;99381.70;1784420;80;21010;-83
2021/09/25 03:46:22;;;;;;;2.08;0.82;;;;;;;10.06;100.00;99388.27;1785234;80;21101;-85
2021/09/25 03:48:49;;;;;;;3.72;1.10;;;;;;;10.06;100.00;99393.53;1784907;80;22038;-81
2021/09/25 03:51:15;;;;;;;5.17;1.27;;;;;;;10.07;100.00;99393.91;1784667;80;21034;-84
2021/09/25 03:53:41;;;;;;;4.17;0.78;;;;;;;10.07;100.00;99397.86;1757253;81;21049;-82
2021/09/25 03:56:08;;;;;;;3.77;0.88;;;;;;;10.08;100.00;99398.27;1784947;80;21115;-85
2021/09/25 03:58:36;;;;;;;4.92;1.50;;;;;;;10.09;100.00;99405.22;1782520;80;21089;-85
2021/09/25 04:01:03;;;;;;;3.35;0.80;;;;;;;10.08;100.00;99410.11;1748261;82;21764;-86
2021/09/25 04:03:29;;;;;;;1.25;0.60;;;;;;;10.06;100.00;99414.58;1747641;82;21079;-85
2021/09/25 04:05:58;;;;;;;3.55;0.85;;;;;;;10.04;100.00;99418.59;1747666;82;21062;-85
2021/09/25 04:08:25;;;;;;;5.55;1.17;;;;;;;10.03;100.00;99426.54;1747821;82;21031;-84
2021/09/25 04:10:51;;;;;;;4.12;1.10;;;;;;;10.02;100.00;99430.11;1748025;82;21074;-82
2021/09/25 04:13:18;;;;;;;4.90;1.12;;;;;;;10.03;100.00;99434.43;1747747;82;21008;-83
2021/09/25 04:15:44;;;;;;;2.80;0.80;;;;;;;10.03;100.00;99434.43;1748139;82;21012;-80
2021/09/25 04:18:11;;;;;;;4.08;1.12;;;;;;;10.05;100.00;99435.22;1747830;82;21141;-82
2021/09/25 04:20:38;;;;;;;4.17;1.40;;;;;;;10.04;100.00;99434.38;1782295;79;21080;-83
2021/09/25 04:23:05;;;;;;;4.78;0.80;;;;;;;10.06;100.00;99439.58;1740387;81;21029;-83
2021/09/25 04:25:31;;;;;;;2.77;0.72;;;;;;;10.07;100.00;99437.32;1752801;81;21170;-82
2021/09/25 04:28:10;;;;;;;5.10;1.12;;;;;;;10.07;100.00;99447.38;1758457;80;21182;-82
2021/09/25 04:30:39;;;;;;;3.33;0.80;;;;;;;10.09;100.00;99448.62;1732419;81;21044;-84
2021/09/25 04:33:09;;;;;;;4.35;1.00;;;;;;;10.10;100.00;99447.72;1732737;81;21110;-82
2021/09/25 04:35:35;;;;;;;1.55;0.62;;;;;;;10.10;100.00;99456.94;1783632;80;21561;-78
2021/09/25 04:38:02;;;;;;;5.60;0.85;;;;;;;10.11;100.00;99458.63;1785177;80;21715;-77
2021/09/25 04:40:31;;;;;;;6.92;1.17;;;;;;;10.10;100.00;99462.19;1784624;80;21137;-76
2021/09/25 04:42:58;;;;;;;1.77;1.45;;;;;;;10.10;100.00;99470.09;1787078;78;21547;-70
2021/09/25 04:45:26;;;;;;;5.05;1.00;;;;;;;10.10;100.00;99467.45;1784347;80;21538;-74
2021/09/25 04:47:52;;;;;;;3.75;1.20;;;;;;;10.11;100.00;99477.05;1784928;80;21092;-74
2021/09/25 04:50:19;;;;;;;4.30;1.10;;;;;;;10.12;100.00;99477.42;1784937;80;21698;-75
2021/09/25 04:52:45;;;;;;;4.12;1.15;;;;;;;10.12;100.00;99477.42;1785225;80;21037;-75
2021/09/25 04:55:12;;;;;;;3.10;1.00;;;;;;;10.12;100.00;99473.47;1785527;80;21021;-69
2021/09/25 04:57:38;;;;;;;4.60;1.22;;;;;;;10.14;100.00;99479.52;1784810;80;21065;-71
2021/09/25 05:00:06;;;;;;;2.67;1.22;;;;;;;10.14;100.00;99484.78;1784434;80;21068;-70
2021/09/25 05:02:33;;;;;;;7.20;1.30;;;;;;;10.17;100.00;99492.56;1784984;80;21096;-71
2021/09/25 05:05:00;;;;;;;3.22;1.15;;;;;;;10.20;100.00;99500.30;1783983;80;21080;-67
2021/09/25 05:07:26;;;;;;;6.37;2.08;;;;;;;10.25;100.00;99511.94;1784847;80;21536;-68
2021/09/25 05:09:52;;;;;;;2.90;1.10;;;;;;;10.26;100.00;99515.83;1784163;80;21131;-68
2021/09/25 05:12:19;;;;;;;6.22;1.42;;;;;;;10.28;100.00;99520.59;1785015;80;21069;-68
2021/09/25 05:14:45;;;;;;;5.10;1.20;;;;;;;10.32;100.00;99527.02;1785318;80;21477;-69
2021/09/25 05:17:11;;;;;;;4.00;1.05;;;;;;;10.34;100.00;99534.39;1785984;78;21013;-67
2021/09/25 05:19:38;;;;;;;2.37;1.07;;;;;;;10.35;100.00;99533.45;1749024;81;21529;-68
2021/09/25 05:22:04;;;;;;;3.10;0.95;;;;;;;10.36;100.00;99539.13;1745929;81;21018;-67
2021/09/25 05:24:31;;;;;;;7.62;1.37;;;;;;;10.36;100.00;99537.81;1738202;81;21096;-68
2021/09/25 05:26:57;;;;;;;5.08;1.20;;;;;;;10.38;100.00;99546.02;1755808;81;21735;-68
2021/09/25 05:29:24;;;;;;;4.42;1.20;;;;;;;10.40;100.00;99553.39;1752302;81;21026;-69
2021/09/25 05:31:52;;;;;;;4.60;1.15;;;;;;;10.41;100.00;99548.98;1752265;81;21128;-68
2021/09/25 05:34:19;;;;;;;5.40;1.10;;;;;;;10.42;100.00;99551.98;1755856;81;21571;-68
2021/09/25 05:36:45;;;;;;;7.55;1.10;;;;;;;10.44;100.00;99559.36;1754029;81;21048;-70
2021/09/25 05:39:11;;;;;;;7.90;1.12;;;;;;;10.45;100.00;99553.19;1755751;81;21507;-70
2021/09/25 05:41:38;;;;;;;3.12;1.20;;;;;;;10.47;100.00;99556.61;1740361;81;21109;-70
2021/09/25 05:44:04;;;;;;;5.22;1.80;;;;;;;10.49;100.00;99562.19;1754548;81;22207;-68
2021/09/25 05:46:31;;;;;;;4.53;1.42;;;;;;;10.46;100.00;99562.77;1754940;81;21042;-68
2021/09/25 05:48:59;;;;;;;6.28;1.55;;;;;;;10.41;100.00;99573.98;1756245;81;21536;-69
2021/09/25 05:51:26;;;;;;;2.55;1.27;;;;;;;10.35;100.00;99568.98;1724028;81;22175;-69
2021/09/25 05:53:52;;;;;;;4.62;1.55;;;;;;;10.34;100.00;99575.19;1737794;81;21080;-68
2021/09/25 05:56:19;;;;;;;6.03;1.10;;;;;;;10.33;100.00;99581.36;1751562;81;21033;-68
2021/09/25 05:58:45;;;;;;;3.87;1.02;;;;;;;10.30;100.00;99582.35;1750359;81;21104;-68
2021/09/25 06:01:12;;;;;;;3.52;1.07;;;;;;;10.31;100.00;99595.05;1755878;81;21516;-67
2021/09/25 06:03:38;;;;;;;4.50;1.15;;;;;;;10.28;100.00;99596.91;1755158;81;21057;-67
2021/09/25 06:06:04;;;;;;;4.25;1.05;;;;;;;10.27;100.00;99601.73;1753650;81;21041;-67
2021/09/25 06:08:31;;;;;;;5.42;1.15;;;;;;;10.26;100.00;99601.36;1755414;81;21084;-68
2021/09/25 06:10:57;;;;;;;3.30;0.95;;;;;;;10.27;100.00;99601.73;1756030;81;21082;-68
2021/09/25 06:13:23;;;;;;;2.02;0.90;;;;;;;10.29;100.00;99610.45;1756142;81;21088;-68
2021/09/25 06:15:50;;;;;;;2.80;1.00;;;;;;;10.32;100.00;99616.04;1755074;81;21496;-69
2021/09/25 06:18:16;;;;;;;2.22;1.02;;;;;;;10.37;100.00;99610.57;1755261;81;21046;-67
2021/09/25 06:20:43;;;;;;;4.20;0.68;;;;;;;10.43;100.00;99618.20;1745400;81;21088;-69
2021/09/25 06:23:09;;;;;;;3.95;1.10;;;;;;;10.48;100.00;99616.22;1721440;83;21056;-69
2021/09/25 06:25:36;;;;;;;4.78;0.93;;;;;;;10.52;100.00;99615.16;1749549;80;21048;-67
2021/09/25 06:28:03;;;;;;;3.08;1.20;;;;;;;10.56;100.00;99623.33;1750741;81;21922;-68
2021/09/25 06:30:29;;;;;;;3.87;0.72;;;;;;;10.61;100.00;99623.11;1752093;81;21067;-69
2021/09/25 06:32:56;;;;;;;2.33;0.78;;;;;;;10.60;100.00;99628.81;1765547;81;21098;-70
2021/09/25 06:35:24;;;;;;;2.25;0.93;;;;;;;10.65;100.00;99632.56;1765436;81;21623;-70
2021/09/25 06:37:51;;;;;;;2.72;1.00;;;;;;;10.66;99.56;99637.77;1762954;81;21040;-69
2021/09/25 06:40:17;;;;;;;6.72;1.00;;;;;;;10.69;98.79;99633.67;1744556;81;21152;-69
2021/09/25 06:42:44;;;;;;;3.90;1.00;;;;;;;10.70;98.31;99640.66;1757286;81;21073;-69
2021/09/25 06:45:11;;;;;;;0.90;0.65;;;;;;;10.71;98.08;99646.78;1734487;81;21055;-69
2021/09/25 06:47:38;;;;;;;1.92;0.82;;;;;;;10.72;97.49;99652.45;1752112;81;21572;-69
2021/09/25 06:50:05;;;;;;;5.95;0.98;;;;;;;10.76;97.81;99653.16;1761602;81;21010;-68
2021/09/25 06:52:32;;;;;;;3.80;1.10;;;;;;;10.80;96.65;99658.68;1748903;81;21106;-69
2021/09/25 06:54:58;;;;;;;5.33;1.25;;;;;;;10.87;96.60;99663.59;1764455;81;21010;-69
2021/09/25 06:57:26;;;;;;;2.83;0.95;;;;;;;10.96;96.45;99670.22;1762774;81;21113;-70
2021/09/25 06:59:54;;;;;;;3.58;1.20;;;;;;;11.08;96.61;99676.23;1762058;81;21120;-70
2021/09/25 07:02:20;;;;;;;5.17;1.32;;;;;;;11.23;95.71;99679.11;1750828;81;21570;-70
2021/09/25 07:04:47;;;;;;;5.92;1.57;;;;;;;11.35;95.49;99677.20;1748175;81;22278;-69
2021/09/25 07:07:14;;;;;;;1.52;0.90;;;;;;;11.49;95.44;99677.39;1765340;81;21017;-70
2021/09/25 07:09:42;;;;;;;7.45;1.17;;;;;;;11.62;94.78;99675.47;1762782;81;21056;-69
2021/09/25 07:12:09;;;;;;;6.12;1.05;;;;;;;11.67;93.10;99685.36;1760538;81;21573;-69
2021/09/25 07:14:36;;;;;;;4.28;1.07;;;;;;;11.72;92.93;99684.66;1750834;81;21683;-69
2021/09/25 07:17:03;;;;;;;4.22;1.10;;;;;;;11.75;92.12;99687.14;1742356;80;21183;-69
2021/09/25 07:19:30;;;;;;;2.02;1.10;;;;;;;11.84;92.07;99685.84;1753747;81;21568;-69
2021/09/25 07:21:58;;;;;;;3.05;1.15;;;;;;;11.94;90.94;99685.34;1751474;80;21126;-70
2021/09/25 07:24:24;;;;;;;3.83;1.05;;;;;;;12.01;89.58;99682.38;1751247;81;21473;-69
2021/09/25 07:26:50;;;;;;;4.58;1.20;;;;;;;12.10;89.43;99676.20;1754253;80;21039;-67
2021/09/25 07:29:18;;;;;;;6.05;1.10;;;;;;;12.23;89.41;99672.45;1746954;80;21482;-71
2021/09/25 07:31:46;;;;;;;6.58;1.27;;;;;;;12.33;88.66;99671.06;1749257;80;21072;-70
2021/09/25 07:34:12;;;;;;;4.85;1.20;;;;;;;12.43;88.53;99676.72;1711635;81;21064;-69
2021/09/25 07:38:55;;;;;;;3.75;1.10;;;;;;;12.57;86.35;99693.17;1786617;79;23939;-70
2021/09/25 07:41:23;;;;;;;4.53;1.20;;;;;;;12.56;85.67;99696.73;1742506;81;21077;-69
2021/09/25 07:43:51;;;;;;;5.95;1.40;;;;;;;12.57;85.76;99694.48;1744993;81;21125;-69
2021/09/25 07:46:18;;;;;;;2.62;0.95;;;;;;;12.54;84.98;99697.30;1752702;80;21081;-70
2021/09/25 07:48:44;;;;;;;3.80;1.42;;;;;;;12.51;84.80;99705.36;1717094;83;21043;-69
2021/09/25 07:51:10;;;;;;;2.05;1.00;;;;;;;12.52;84.64;99701.80;1707871;83;21038;-69
2021/09/25 07:53:37;;;;;;;1.45;0.90;;;;;;;12.54;84.76;99707.87;1713366;83;21128;-69
2021/09/25 07:56:04;;;;;;;3.25;1.05;;;;;;;12.57;85.92;99699.77;1713059;83;21644;-68
2021/09/25 07:58:30;;;;;;;2.30;1.20;;;;;;;12.63;85.51;99698.14;1713861;83;21045;-68
2021/09/25 08:00:57;;;;;;;2.30;0.98;;;;;;;12.67;85.17;99708.91;1711657;82;21697;-66
2021/09/25 08:03:23;;;;;;;3.15;1.12;;;;;;;12.68;86.06;99705.35;1723484;82;21115;-68
2021/09/25 08:05:50;;;;;;;5.35;1.10;;;;;;;12.74;86.24;99708.12;1724471;82;21113;-70
2021/09/25 08:08:16;;;;;;;3.98;1.10;;;;;;;12.71;84.50;99707.82;1730278;82;21598;-69
2021/09/25 08:10:43;;;;;;;6.17;1.50;;;;;;;12.69;84.62;99719.41;1724183;82;21084;-69
2021/09/25 08:13:09;;;;;;;7.15;1.67;;;;;;;12.70;85.92;99711.41;1723068;83;21073;-69
2021/09/25 08:15:35;;;;;;;9.90;1.98;;;;;;;12.71;84.69;99723.67;1727235;82;21163;-70
2021/09/25 08:18:02;;;;;;;15.83;2.08;;;;;;;12.74;85.34;99722.66;1730977;82;21072;-70
2021/09/25 08:20:28;;;;;;;8.13;1.90;;;;;;;12.77;85.14;99726.01;1726735;82;21782;-71
2021/09/25 08:22:57;;;;;;;2.22;1.30;;;;;;;12.83;85.45;99727.94;1724411;82;21127;-74
2021/09/25 08:25:23;;;;;;;7.00;1.52;;;;;;;12.88;83.98;99727.22;1725456;82;21095;-74
2021/09/25 08:27:49;;;;;;;5.58;1.77;;;;;;;12.88;85.19;99731.18;1725901;82;21564;-70
2021/09/25 08:30:16;;;;;;;3.85;1.32;;;;;;;12.88;83.88;99737.78;1722919;82;21032;-68
2021/09/25 08:32:43;;;;;;;3.22;1.42;;;;;;;12.87;84.83;99740.05;1725256;82;21111;-70
2021/09/25 08:35:10;;;;;;;5.25;1.42;;;;;;;12.86;83.96;99742.30;1725226;82;21033;-67
2021/09/25 08:37:37;;;;;;;4.87;1.65;;;;;;;12.87;83.86;99742.70;1698795;84;21061;-70
2021/09/25 08:40:06;;;;;;;4.25;1.30;;;;;;;12.87;83.34;99747.52;1696399;83;21077;-69
2021/09/25 08:42:33;;;;;;;4.42;1.65;;;;;;;12.86;83.91;99754.19;1709096;83;21686;-73
2021/09/25 08:44:59;;;;;;;4.53;1.47;;;;;;;12.88;84.25;99757.13;1709522;83;21697;-73
2021/09/25 08:47:26;;;;;;;6.37;1.52;;;;;;;12.93;83.96;99763.50;1696203;83;21056;-71
2021/09/25 08:49:52;;;;;;;4.30;1.25;;;;;;;12.97;84.26;99759.29;1720046;82;21028;-74
2021/09/25 08:52:19;;;;;;;4.37;1.50;;;;;;;13.02;83.55;99761.69;1732637;82;21105;-71
2021/09/25 08:54:45;;;;;;;6.78;1.22;;;;;;;13.05;82.69;99761.55;1737527;82;21217;-71
2021/09/25 08:57:12;;;;;;;5.00;1.32;;;;;;;13.09;84.39;99766.19;1736038;82;22067;-70
2021/09/25 08:59:38;;;;;;;3.10;1.30;;;;;;;13.09;83.86;99761.78;1724577;82;21082;-71
2021/09/25 09:02:19;;;;;;;7.60;1.15;;;;;;;13.15;83.92;99766.72;1728252;82;21096;-72
2021/09/25 09:04:53;;;;;;;9.85;1.87;;;;;;;13.20;84.09;99759.42;1722568;82;21060;-71
2021/09/25 09:07:23;;;;;;;2.42;1.27;;;;;;;13.20;83.80;99764.70;1719649;83;21052;-72
2021/09/25 09:09:49;;;;;;;4.33;1.37;;;;;;;13.18;83.12;99767.90;1689868;83;21407;-70
2021/09/25 09:12:25;;;;;;;4.75;1.27;;;;;;;13.09;81.45;99767.06;1706145;82;21057;-69
2021/09/25 09:14:52;;;;;;;6.78;1.60;;;;;;;13.01;82.00;99767.92;1736887;82;21082;-69
2021/09/25 09:17:31;;;;;;;10.70;2.52;;;;;;;13.03;82.73;99765.22;1736053;82;21074;-71
2021/09/25 09:19:57;;;;;;;5.00;1.25;;;;;;;13.11;83.09;99763.88;1731041;82;21076;-74
2021/09/25 09:22:25;;;;;;;7.42;2.27;;;;;;;13.21;83.07;99766.40;1712159;83;21041;-74
2021/09/25 09:24:54;;;;;;;7.55;2.02;;;;;;;13.35;83.47;99756.91;1690286;84;21048;-74
2021/09/25 09:27:25;;;;;;;5.67;1.40;;;;;;;13.47;82.65;99760.20;1690398;84;21108;-74
2021/09/25 09:30:09;;;;;;;;;;;;;;;13.58;83.09;99761.78;1693201;84;21067;-74
2021/09/25 09:32:45;;;;;;;6.03;2.45;;;;;;;13.71;82.30;99759.77;1671240;85;20698;-75
2021/09/25 09:35:14;;;;;;;12.47;2.40;;;;;;;13.81;83.10;99760.50;1672705;85;21114;-74
2021/09/25 09:37:41;;;;;;;3.62;1.80;;;;;;;13.94;82.43;99759.35;1671427;85;21834;-73
2021/09/25 09:40:08;;;;;;;5.35;1.40;;;;;;;14.08;81.26;99759.01;1669623;85;21111;-73
2021/09/25 09:42:48;;;;;;;3.98;1.40;;;;;;;14.14;79.61;99760.84;1669807;85;21593;-74
2021/09/25 09:45:27;;;;;;;3.90;1.55;;;;;;;14.12;77.42;99768.48;1669718;85;21074;-75
2021/09/25 09:47:55;;;;;;;6.72;1.62;;;;;;;14.14;78.44;99754.69;1670634;85;21050;-73
2021/09/25 09:50:21;;;;;;;10.23;1.50;;;;;;;14.25;78.27;99757.09;1624104;85;21127;-73
2021/09/25 09:52:47;;;;;;;6.70;1.90;;;;;;;14.38;77.63;99753.28;1671783;85;21608;-74
2021/09/25 09:55:24;;;;;;;7.15;1.80;;;;;;;14.57;75.71;99751.73;1672953;85;21050;-75
2021/09/25 09:58:03;;;;;;;11.50;2.02;;;;;;;14.65;74.59;99744.64;1672043;85;21149;-75
2021/09/25 10:00:29;;;;;;;5.37;1.98;;;;;;;14.73;74.54;99743.73;1670719;85;21287;-75
2021/09/25 10:02:56;;;;;;;5.75;2.00;;;;;;;14.86;74.81;99740.72;1668080;85;21129;-74
2021/09/25 10:05:23;;;;;;;8.83;2.00;;;;;;;14.98;74.47;99743.56;1678294;84;21082;-75
2021/09/25 10:07:50;;;;;;;4.00;1.77;;;;;;;14.98;72.96;99743.56;1678168;84;21053;-73
2021/09/25 10:10:16;;;;;;;5.20;2.37;;;;;;;14.94;72.37;99748.67;1678109;85;21088;-74
2021/09/25 10:12:43;;;;;;;7.95;2.15;;;;;;;14.87;72.05;99750.84;1720660;83;21371;-73
2021/09/25 10:15:10;;;;;;;6.78;2.27;;;;;;;14.71;72.46;99750.91;1702070;83;21057;-73
2021/09/25 10:17:36;;;;;;;4.97;2.02;;;;;;;14.63;72.46;99743.88;1720707;82;21081;-74
2021/09/25 10:20:04;;;;;;;9.90;2.42;;;;;;;14.55;72.98;99754.95;1720678;83;21113;-73
2021/09/25 10:22:33;;;;;;;6.12;2.75;;;;;;;14.55;72.75;99750.97;1720406;83;21683;-74
2021/09/25 10:25:05;;;;;;;7.53;2.40;;;;;;;14.66;72.82;99753.84;1722585;82;21192;-72
2021/09/25 10:27:41;;;;;;;10.63;2.80;;;;;;;14.76;72.25;99746.18;1731412;82;21633;-73
2021/09/25 10:30:10;;;;;;;17.37;4.15;;;;;;;14.92;72.97;99743.45;1740215;82;21662;-73
2021/09/25 10:32:51;;;;;;;6.85;2.52;;;;;;;15.17;72.46;99740.14;1733301;80;21110;-73
2021/09/25 10:35:19;;;;;;;5.60;2.00;;;;;;;15.59;70.50;99721.13;1732053;82;21706;-73
2021/09/25 10:37:52;;;;;;;4.42;1.92;;;;;;;15.83;69.40;99724.04;1731493;82;21077;-74
2021/09/25 10:40:23;;;;;;;5.40;1.90;;;;;;;15.95;69.18;99731.67;1735515;82;21117;-73
2021/09/25 10:43:00;;;;;;;8.68;1.87;;;;;;;16.08;67.28;99736.56;1734185;81;21606;-73
2021/09/25 10:45:37;;;;;;;4.37;1.80;;;;;;;16.20;67.48;99739.36;1713196;82;21548;-73
2021/09/25 10:48:27;;;;;;;6.45;1.80;;;;;;;16.34;66.65;99724.67;1719815;82;21002;-73
2021/09/25 10:51:05;;;;;;;3.37;1.30;;;;;;;16.50;65.59;99730.64;1740542;81;21472;-74
2021/09/25 10:53:37;;;;;;;4.22;1.72;;;;;;;16.61;64.04;99720.63;1721012;82;21077;-73
2021/09/25 10:56:10;;;;;;;6.85;1.80;;;;;;;16.65;63.37;99715.92;1734119;81;21058;-75
2021/09/25 10:58:38;;;;;;;6.53;1.70;;;;;;;16.77;63.56;99712.41;1689036;83;21033;-72
2021/09/25 11:01:10;;;;;;;10.10;1.82;;;;;;;17.15;63.35;99714.23;1738533;82;21529;-73
2021/09/25 11:03:53;;;;;;;5.30;1.30;;;;;;;17.57;62.84;99720.09;1741532;81;21568;-74
2021/09/25 11:06:26;;;;;;;4.70;1.27;;;;;;;17.90;60.19;99720.81;1737069;82;21101;-74
2021/09/25 11:09:07;;;;;;;4.85;1.47;;;;;;;18.05;57.53;99721.48;1730999;81;21321;-73
2021/09/25 11:11:40;;;;;;;6.87;1.55;;;;;;;17.80;57.52;99724.58;1742432;81;22276;-73
2021/09/25 11:14:31;;;;;;;7.45;1.95;;;;;;;17.48;58.37;99729.59;1742036;82;21806;-73
2021/09/25 11:17:14;;;;;;;6.78;1.90;;;;;;;17.13;59.40;99730.78;1713731;82;21477;-73
2021/09/25 11:20:01;;;;;;;4.08;1.30;;;;;;;16.98;60.12;99734.91;1677125;85;21009;-73
2021/09/25 11:22:37;;;;;;;5.55;1.85;;;;;;;16.86;62.12;99732.23;1730082;81;21390;-73
2021/09/25 11:25:09;;;;;;;8.50;4.25;;;;;;;16.77;63.77;99732.35;1734986;81;21030;-73
2021/09/25 11:27:43;;;;;;;10.67;4.93;;;;;;;16.57;63.98;99737.24;1744483;81;21619;-73
2021/09/25 11:30:25;;;;;;;13.98;4.42;;;;;;;16.31;64.47;99723.52;1737524;82;21124;-72
2021/09/25 11:32:54;;;;;;;9.40;4.20;;;;;;;16.17;65.72;99720.47;1706398;83;21124;-73
2021/09/25 11:35:26;;;;;;;11.93;3.22;;;;;;;16.13;65.50;99723.82;1697778;83;20998;-73